Clifton, CO (81520)

1:54 PM MST on January 25, 2015 (GMT -0700)
Clifton Area - SE of Patterson and 31.5 Rd | Change Station
CLOSE
Current Station
Personal Weather Station
Location: Grand Junction, CO
Elevation: 4737 ft
Nearby Weather Stations

Elev 4737 ft 39.09 °N, 108.47 °W | Updated 4 minutes ago

Clear
Clear
50.3 °F
Feels Like 50.3 °F
N
3.0
Wind Variable Wind from NNW
Gusts 4.0 mph

Today
High -- | Low -- °F
--% Chance of Precip.
Yesterday
High -- | Low -- °F
Precip. -- in
7:26 AM 5:26 PM
Waxing Crescent, 35% visible
Pressure 30.38 in
Visibility 10.0 miles
Clouds Clear
Dew Point 22 °F
Humidity 33%
Rainfall 0.00 in
Snow Depth Not available.
UV 4 out of 12
Pollen .10 out of 12
Air Quality Not available.
Flu Activity Not available.
METAR KGJT 251953Z 00000KT 10SM CLR 07/M08 A3035 RMK AO2 SLP287 T00721078

More Conditions Fewer Conditions

Pressure 30.38 in
Visibility 10.0 miles
Clouds Clear
Dew Point 22 °F
Humidity 33%
Rainfall 0.00 in
Snow Depth Not available.
UV 4 out of 12
Pollen .10 out of 12
Air Quality Not available.
Flu Activity Not available.
METAR KGJT 251953Z 00000KT 10SM CLR 07/M08 A3035 RMK AO2 SLP287 T00721078

More Conditions Fewer Conditions

10-Day Weather Forecast

Almanac

Astronomy

Jan. 25, 2015 Rise Set
Actual Time
Civil Twilight
Nautical Twilight
Astronomical Twilight
Moon
Length of Visible Light
Length of Day
Tomorrow will be .
, % of the Moon is Illuminated

Today's Extremes

State Highs State Lows

Community

WunderPhotos

Upload Photos

1,790,041 photos uploaded!

WunderBlogs® & News

Nearby

Air Quality

  Air Quality AQ Index Pollutant
Not available.

Snow Depth

Station Depth Elevation

Earthquake Activity

City Distance Mag. Time & Date
Minimum magnitude displayed is 2.5.

Coastal Water Temperatures

Place Temperature

Nearby Weather Stations